createdAt,value
2019-04-28T00:03:38.787Z,100044.92
2019-04-28T00:08:42.946Z,100046.14
2019-04-28T00:13:46.459Z,100042.13
2019-04-28T00:18:51.105Z,100044.31
2019-04-28T00:24:12.383Z,100046.92
2019-04-28T00:29:15.852Z,100041.96
2019-04-28T00:34:21.241Z,100051.88
2019-04-28T00:39:24.965Z,100057.27
2019-04-28T00:44:28.425Z,100059.27
2019-04-28T00:49:46.988Z,100065.02
2019-04-28T00:54:52.629Z,100060.66
2019-04-28T00:59:58.620Z,100067.63
2019-04-28T01:05:01.941Z,100065.45
2019-04-28T01:10:06.615Z,100069.80
2019-04-28T01:15:12.861Z,100069.02
2019-04-28T01:20:19.666Z,100072.58
2019-04-28T01:25:23.238Z,100065.62
2019-04-28T01:30:40.165Z,100070.41
2019-04-28T01:35:43.736Z,100073.19
2019-04-28T01:40:47.197Z,100089.11
2019-04-28T01:45:50.670Z,100089.72
2019-04-28T01:50:54.134Z,100079.83
2019-04-28T01:55:59.464Z,100092.50
2019-04-28T02:01:02.794Z,100095.28
2019-04-28T02:06:06.322Z,100100.70
2019-04-28T02:11:10.181Z,100093.14
2019-04-28T02:16:13.722Z,100101.31
2019-04-28T02:21:24.731Z,100104.09
2019-04-28T02:26:29.578Z,100111.05
2019-04-28T02:31:33.141Z,100103.13
2019-04-28T02:36:36.599Z,100105.31
2019-04-28T02:41:41.103Z,100105.31
2019-04-28T02:46:45.047Z,100102.96
2019-04-28T02:51:50.666Z,100103.57
2019-04-28T02:56:54.081Z,100098.00
2019-04-28T03:01:57.542Z,100100.18
2019-04-28T03:07:01.467Z,100097.22
2019-04-28T03:12:05.397Z,100098.61
2019-04-28T03:17:10.905Z,100090.09
2019-04-28T03:22:14.055Z,100093.48
2019-04-28T03:27:35.591Z,100097.66
2019-04-28T03:32:52.501Z,100101.05
2019-04-28T03:37:45.872Z,100108.64
2019-04-28T03:42:51.347Z,100114.81
2019-04-28T03:47:54.523Z,100123.16
2019-04-28T03:52:57.987Z,100136.47
2019-04-28T03:58:01.442Z,100147.25
2019-04-28T04:03:04.899Z,100151.25
2019-04-28T04:08:10.837Z,100157.42
2019-04-28T04:13:27.162Z,100161.95
2019-04-28T04:18:44.090Z,100153.25
2019-04-28T04:23:47.560Z,100136.38
2019-04-28T04:28:51.640Z,100145.77
2019-04-28T04:33:55.254Z,100151.62
2019-04-28T04:39:01.372Z,100169.96
2019-04-28T04:44:04.084Z,100174.72
2019-04-28T04:49:07.551Z,100176.28
2019-04-28T04:54:11.035Z,100177.67
2019-04-28T04:59:14.474Z,100189.41
2019-04-28T05:04:19.746Z,100193.27
2019-04-28T05:09:23.212Z,100203.14
2019-04-28T05:14:26.668Z,100212.88
2019-04-28T05:19:30.129Z,100207.17
2019-04-28T05:24:35.229Z,100204.03
2019-04-28T05:29:39.755Z,100211.23
2019-04-28T05:34:46.718Z,100222.55
2019-04-28T05:39:49.674Z,100228.72
2019-04-28T05:44:53.793Z,100234.70
2019-04-28T05:50:07.669Z,100241.06
2019-04-28T05:55:15.416Z,100246.98
2019-04-28T06:00:36.862Z,100243.59
2019-04-28T06:05:40.316Z,100240.98
2019-04-28T06:10:43.782Z,100235.59
2019-04-28T06:15:47.243Z,100233.60
2019-04-28T06:20:50.707Z,100230.03
2019-04-28T06:25:54.172Z,100237.78
2019-04-28T06:30:57.628Z,100240.70
2019-04-28T06:36:01.084Z,100244.45
2019-04-28T06:41:04.543Z,100247.41
2019-04-28T06:46:08.005Z,100264.11
2019-04-28T06:51:11.470Z,100280.19
2019-04-28T06:56:14.934Z,100284.97
2019-04-28T07:01:18.392Z,100289.75
2019-04-28T07:06:21.857Z,100298.88
2019-04-28T07:11:25.584Z,100309.44
2019-04-28T07:16:29.048Z,100302.58
2019-04-28T07:21:34.143Z,100313.16
2019-04-28T07:26:37.639Z,100318.60
2019-04-28T07:31:41.085Z,100321.47
2019-04-28T07:36:44.549Z,100322.77
2019-04-28T07:41:48.010Z,100326.70
2019-04-28T07:46:51.469Z,100336.80
2019-04-28T07:52:11.598Z,100337.48
2019-04-28T07:57:15.232Z,100346.55
2019-04-28T08:02:18.694Z,100358.80
2019-04-28T08:07:22.152Z,100360.37
2019-04-28T08:12:25.621Z,100367.32
2019-04-28T08:17:29.081Z,100373.30
2019-04-28T08:22:32.545Z,100383.83
2019-04-28T08:27:36.007Z,100394.77
2019-04-28T08:32:56.136Z,100400.78
2019-04-28T08:37:59.688Z,100396.80
2019-04-28T08:43:03.167Z,100397.22
2019-04-28T08:48:06.646Z,100405.80
2019-04-28T08:53:10.118Z,100412.75
2019-04-28T08:58:13.596Z,100407.80
2019-04-28T09:03:17.074Z,100415.02
2019-04-28T09:08:20.564Z,100418.41
2019-04-28T09:13:24.033Z,100419.80
2019-04-28T09:18:27.506Z,100423.36
2019-04-28T09:23:30.983Z,100425.95
2019-04-28T09:28:34.456Z,100424.75
2019-04-28T09:33:38.097Z,100427.95
2019-04-28T09:38:41.578Z,100433.09
2019-04-28T09:43:55.870Z,100421.00
2019-04-28T09:48:59.355Z,100422.57
2019-04-28T09:54:02.831Z,100419.94
2019-04-28T09:59:06.324Z,100412.39
2019-04-28T10:04:09.800Z,100412.39
2019-04-28T10:09:14.107Z,100408.81
2019-04-28T10:14:17.535Z,100406.67
2019-04-28T10:19:21.013Z,100411.60
2019-04-28T10:24:24.495Z,100411.18
2019-04-28T10:29:27.969Z,100407.01
2019-04-28T10:34:31.448Z,100413.35
2019-04-28T10:39:42.532Z,100420.48
2019-04-28T10:44:47.672Z,100416.69
2019-04-28T10:49:51.154Z,100417.02
2019-04-28T10:54:54.630Z,100426.93
2019-04-28T10:59:58.115Z,100424.34
2019-04-28T11:05:08.687Z,100432.67
2019-04-28T11:10:12.983Z,100424.56
2019-04-28T11:15:18.737Z,100431.71
2019-04-28T11:20:25.177Z,100423.31
2019-04-28T11:25:27.765Z,100420.63
2019-04-28T11:30:31.314Z,100424.20
2019-04-28T11:35:36.430Z,100421.78
2019-04-28T11:40:39.912Z,100426.14
2019-04-28T11:45:43.459Z,100428.28
2019-04-28T11:50:47.015Z,100420.13
2019-04-28T11:55:50.492Z,100422.91
2019-04-28T12:00:53.971Z,100415.34
2019-04-28T12:05:57.450Z,100417.53
2019-04-28T12:11:02.569Z,100422.67
2019-04-28T12:16:13.507Z,100421.83
2019-04-28T12:21:16.985Z,100428.32
2019-04-28T12:26:20.475Z,100425.91
2019-04-28T12:31:23.951Z,100428.00
2019-04-28T12:36:27.409Z,100422.01
2019-04-28T12:41:30.869Z,100421.77
2019-04-28T12:46:34.339Z,100430.33
2019-04-28T12:51:37.872Z,100428.78
2019-04-28T12:56:41.334Z,100425.48
2019-04-28T13:01:52.451Z,100419.41
2019-04-28T13:07:02.549Z,100411.45
2019-04-28T13:12:06.650Z,100412.41
2019-04-28T13:17:10.120Z,100393.42
2019-04-28T13:22:13.582Z,100404.51
2019-04-28T13:27:17.051Z,100405.20
2019-04-28T13:32:20.528Z,100397.03
2019-04-28T13:37:23.991Z,100399.56
2019-04-28T13:42:27.453Z,100401.47
2019-04-28T13:47:31.774Z,100392.51
2019-04-28T13:52:35.207Z,100396.26
2019-04-28T13:57:38.674Z,100389.73
2019-04-28T14:02:52.311Z,100388.19
2019-04-28T14:07:55.757Z,100391.57
2019-04-28T14:12:59.214Z,100390.18
2019-04-28T14:18:02.726Z,100386.79
2019-04-28T14:23:06.203Z,100392.36
2019-04-28T14:28:09.676Z,100391.57
2019-04-28T14:33:16.342Z,100398.35
2019-04-28T14:38:18.324Z,100396.53
2019-04-28T14:43:21.852Z,100403.49
2019-04-28T14:48:25.267Z,100399.83
2019-04-28T14:53:28.896Z,100407.58
2019-04-28T14:58:32.493Z,100405.64
2019-04-28T15:03:43.255Z,100403.31
2019-04-28T15:08:54.156Z,100404.88
2019-04-28T15:13:57.613Z,100392.18
2019-04-28T15:19:01.075Z,100400.35
2019-04-28T15:24:04.563Z,100401.56
2019-04-28T15:29:08.039Z,100404.34
2019-04-28T15:34:11.519Z,100408.16
2019-04-28T15:39:14.992Z,100403.20
2019-04-28T15:44:18.467Z,100401.20
2019-04-28T15:49:21.945Z,100405.20
2019-04-28T15:54:25.420Z,100410.77
2019-04-28T15:59:28.898Z,100409.06
2019-04-28T16:04:32.393Z,100406.08
2019-04-28T16:09:35.845Z,100404.20
2019-04-28T16:14:39.593Z,100399.48
2019-04-28T16:19:43.090Z,100400.03
2019-04-28T16:24:46.569Z,100404.98
2019-04-28T16:29:50.025Z,100404.35
2019-04-28T16:34:53.484Z,100405.74
2019-04-28T16:39:56.946Z,100412.27
2019-04-28T16:45:00.413Z,100413.61
2019-04-28T16:50:06.149Z,100414.13
2019-04-28T16:55:20.290Z,100417.45
2019-04-28T17:00:25.398Z,100420.59
2019-04-28T17:05:29.039Z,100426.06
2019-04-28T17:10:32.496Z,100429.81
2019-04-28T17:15:35.948Z,100426.61
2019-04-28T17:20:39.415Z,100443.03
2019-04-28T17:25:42.880Z,100444.42
2019-04-28T17:30:46.338Z,100442.61
2019-04-28T17:35:49.813Z,100451.73
2019-04-28T17:40:53.449Z,100452.52
2019-04-28T17:45:56.904Z,100456.94
2019-04-28T17:51:00.372Z,100456.61
2019-04-28T17:56:03.834Z,100466.77
2019-04-28T18:01:24.238Z,100466.77
2019-04-28T18:06:29.343Z,100474.33
2019-04-28T18:11:32.808Z,100475.78
2019-04-28T18:16:40.683Z,100478.56
2019-04-28T18:21:44.152Z,100485.97
2019-04-28T18:26:49.130Z,100496.73
2019-04-28T18:32:03.023Z,100494.97
2019-04-28T18:37:20.426Z,100501.59
2019-04-28T18:42:40.554Z,100507.77
2019-04-28T18:47:44.031Z,100515.92
2019-04-28T18:52:47.516Z,100523.48
2019-04-28T18:57:50.995Z,100536.00
2019-04-28T19:02:54.475Z,100535.21
2019-04-28T19:08:05.197Z,100548.94
2019-04-28T19:13:12.729Z,100554.50
2019-04-28T19:18:29.970Z,100552.32
2019-04-28T19:23:33.440Z,100557.09
2019-04-28T19:28:36.923Z,100568.04
2019-04-28T19:33:40.397Z,100568.04
2019-04-28T19:38:43.871Z,100563.87
2019-04-28T19:43:47.386Z,100565.86
2019-04-28T19:48:50.832Z,100568.83
2019-04-28T19:53:54.311Z,100569.25
2019-04-28T19:59:15.925Z,100581.16
2019-04-28T20:04:19.403Z,100582.55
2019-04-28T20:09:22.885Z,100584.55
2019-04-28T20:14:26.365Z,100587.33
2019-04-28T20:19:29.842Z,100583.94
2019-04-28T20:24:46.360Z,100582.55
2019-04-28T20:29:38.520Z,100583.34
2019-04-28T20:34:42.166Z,100576.98
2019-04-28T20:39:47.308Z,100581.16
2019-04-28T20:44:50.785Z,100581.16
2019-04-28T20:49:54.279Z,100585.52
2019-04-28T20:54:57.775Z,100588.30
2019-04-28T21:00:01.233Z,100592.47
2019-04-28T21:05:06.495Z,100601.00
2019-04-28T21:10:10.051Z,100594.05
2019-04-28T21:15:14.251Z,100596.64
2019-04-28T21:20:18.458Z,100591.88
2019-04-28T21:25:21.910Z,100592.66
2019-04-28T21:30:25.367Z,100596.05
2019-04-28T21:35:30.371Z,100588.48
2019-04-28T21:40:33.996Z,100592.84
2019-04-28T21:45:44.913Z,100585.28
2019-04-28T21:50:48.368Z,100596.41
2019-04-28T21:55:51.824Z,100592.23
2019-04-28T22:00:55.933Z,100591.45
2019-04-28T22:05:59.405Z,100601.19
2019-04-28T22:11:02.933Z,100606.75
2019-04-28T22:16:06.461Z,100604.57
2019-04-28T22:21:09.930Z,100607.95
2019-04-28T22:26:15.032Z,100615.52
2019-04-28T22:31:18.497Z,100616.11
2019-04-28T22:36:21.965Z,100623.25
2019-04-28T22:41:25.422Z,100619.50
2019-04-28T22:46:28.880Z,100620.28
2019-04-28T22:51:32.877Z,100629.23
2019-04-28T22:56:37.983Z,100625.85
2019-04-28T23:01:43.259Z,100625.85
2019-04-28T23:06:46.716Z,100626.03
2019-04-28T23:11:50.181Z,100627.05
2019-04-28T23:16:53.817Z,100634.80
2019-04-28T23:22:01.715Z,100635.77
2019-04-28T23:27:05.326Z,100638.97
2019-04-28T23:32:08.795Z,100632.80
2019-04-28T23:37:12.263Z,100629.84
2019-04-28T23:42:20.450Z,100628.63
2019-04-28T23:47:23.915Z,100628.63
2019-04-28T23:52:31.717Z,100633.59
2019-04-28T23:57:35.230Z,100626.45
